Impacts TAF Board
For situational awareness. Not to be used for flight planning purposes.
IDs:

KMGM - Montgomery/Dannely F, AL, US

Issued at 1743 UTC 23 Jan 2019
Updated at 1828 UTC 23 Jan 2019
Potential Impact None Slight Moderate High
Time<<24/07Z 24/08Z 24/09Z 24/10Z 24/11Z 24/12Z 24/13Z 24/14Z 24/15Z 24/16Z 24/17Z 24/18Z 24/19Z>>
Type PRVL PRVL PRVL PRVL PRVL PRVL PRVL PRVL PRVL PRVL PRVL
VIS >6 >6 >6 >6 >6 >6 >6 >6 >6 >6 >6
CIG 10 10 10 10 10 10 10 10 25 25 25
Cover OVC OVC OVC OVC OVC OVC OVC OVC BKN BKN BKN
FltCat MVFR MVFR MVFR MVFR MVFR MVFR MVFR MVFR MVFR MVFR MVFR
WX -- -- -- -- -- -- -- -- -- -- --
WDir 300 300 300 300 300 300 300 300 320 320 320
WSpd 10 10 10 10 10 10 10 10 9 9 9
WGst -- -- -- -- -- -- -- -- -- -- --
Raw TAF
KMGM 231743Z 2318/2418 15016G28KT P6SM SHRA BKN050 OVC060
  FM232000 16020G30KT 4SM SHRA VCTS OVC018CB
  TEMPO 2321/2323 2SM +TSRA BR BKN009 OVC015CB
  FM232300 20016G28KT 5SM -RA BR OVC015
  FM240300 30015G25KT P6SM -RA OVC010
  FM240700 30010KT P6SM OVC010
  FM241500 32009KT P6SM BKN025


METAR Board
Radar Display
Forecast Discussion
For situational awareness. Not to be used for flight planning purposes.